createdAt,value
2022-10-05T00:00:56.978Z,101710.02
2022-10-05T00:03:28.473Z,101702.70
2022-10-05T00:05:59.197Z,101702.70
2022-10-05T00:08:33.377Z,101710.02
2022-10-05T00:11:03.083Z,101709.73
2022-10-05T00:13:32.683Z,101709.47
2022-10-05T00:16:11.035Z,101707.83
2022-10-05T00:18:40.564Z,101705.92
2022-10-05T00:21:24.082Z,101701.88
2022-10-05T00:23:55.486Z,101704.84
2022-10-05T00:26:26.869Z,101702.69
2022-10-05T00:28:56.666Z,101703.77
2022-10-05T00:31:27.768Z,101701.31
2022-10-05T00:33:58.533Z,101696.72
2022-10-05T00:36:28.370Z,101693.17
2022-10-05T00:38:57.646Z,101689.67
2022-10-05T00:41:48.709Z,101686.39
2022-10-05T00:44:24.062Z,101685.87
2022-10-05T00:47:05.645Z,101686.41
2022-10-05T00:49:58.947Z,101676.94
2022-10-05T00:52:48.811Z,101678.29
2022-10-05T00:55:24.288Z,101678.29
2022-10-05T00:58:12.110Z,101682.61
2022-10-05T01:01:07.287Z,101676.66
2022-10-05T01:03:51.461Z,101670.16
2022-10-05T01:06:29.770Z,101672.58
2022-10-05T01:09:20.292Z,101677.73
2022-10-05T01:12:01.976Z,101678.55
2022-10-05T01:14:56.510Z,101678.81
2022-10-05T01:17:37.638Z,101678.56
2022-10-05T01:20:19.966Z,101670.95
2022-10-05T01:23:11.601Z,101665.80
2022-10-05T01:25:44.059Z,101657.97
2022-10-05T01:28:30.620Z,101655.77
2022-10-05T01:31:18.466Z,101649.27
2022-10-05T01:33:51.157Z,101640.88
2022-10-05T01:36:21.455Z,101637.37
2022-10-05T01:38:56.877Z,101627.33
2022-10-05T01:41:45.237Z,101628.68
2022-10-05T01:44:20.152Z,101624.62
2022-10-05T01:47:17.122Z,101622.98
2022-10-05T01:50:01.682Z,101615.39
2022-10-05T01:52:45.362Z,101614.05
2022-10-05T01:55:32.823Z,101602.95
2022-10-05T01:58:15.172Z,101605.94
2022-10-05T02:00:53.237Z,101603.48
2022-10-05T02:03:26.460Z,101605.92
2022-10-05T02:05:58.208Z,101600.52
2022-10-05T02:08:37.239Z,101596.45
2022-10-05T02:11:12.320Z,101593.20
2022-10-05T02:13:53.638Z,101589.70
2022-10-05T02:16:44.498Z,101584.82
2022-10-05T02:19:25.642Z,101579.41
2022-10-05T02:22:01.414Z,101572.35
2022-10-05T02:24:35.557Z,101570.17
2022-10-05T02:27:06.676Z,101564.77
2022-10-05T02:29:38.790Z,101559.88
2022-10-05T02:32:14.441Z,101558.80
2022-10-05T02:34:44.807Z,101558.27
2022-10-05T02:37:25.021Z,101549.61
2022-10-05T02:40:28.720Z,101559.88
2022-10-05T02:43:07.464Z,101545.81
2022-10-05T02:45:51.744Z,101546.34
2022-10-05T02:48:30.528Z,101550.94
2022-10-05T02:51:05.878Z,101547.42
2022-10-05T02:53:41.166Z,101544.72
2022-10-05T02:56:13.703Z,101543.34
2022-10-05T02:58:48.812Z,101537.69
2022-10-05T03:01:40.919Z,101528.19
2022-10-05T03:04:28.714Z,101536.33
2022-10-05T03:07:13.907Z,101533.87
2022-10-05T03:09:55.667Z,101537.42
2022-10-05T03:12:45.568Z,101530.09
2022-10-05T03:15:30.519Z,101535.23
2022-10-05T03:18:21.013Z,101530.09
2022-10-05T03:21:02.462Z,101529.26
2022-10-05T03:23:40.889Z,101531.96
2022-10-05T03:26:29.552Z,101521.41
2022-10-05T03:29:05.079Z,101529.00
2022-10-05T03:31:53.482Z,101523.03
2022-10-05T03:34:31.855Z,101533.88
2022-10-05T03:37:06.173Z,101531.45
2022-10-05T03:39:46.377Z,101536.83
2022-10-05T03:42:34.627Z,101547.94
2022-10-05T03:45:18.819Z,101539.28
2022-10-05T03:48:07.824Z,101539.55
2022-10-05T03:51:08.170Z,101530.59
2022-10-05T03:53:49.788Z,101530.59
2022-10-05T03:56:34.613Z,101535.20
2022-10-05T03:59:31.542Z,101538.17
2022-10-05T04:02:09.115Z,101531.97
2022-10-05T04:04:44.700Z,101521.14
2022-10-05T04:07:33.566Z,101517.90
2022-10-05T04:10:06.924Z,101518.66
2022-10-05T04:12:41.688Z,101517.33
2022-10-05T04:15:19.045Z,101517.87
2022-10-05T04:17:51.724Z,101521.41
2022-10-05T04:20:40.785Z,101523.03
2022-10-05T04:23:15.054Z,101514.63
2022-10-05T04:25:47.259Z,101513.24
2022-10-05T04:28:44.432Z,101510.55
2022-10-05T04:31:20.911Z,101510.52
2022-10-05T04:33:54.364Z,101510.01
2022-10-05T04:36:25.677Z,101505.95
2022-10-05T04:39:13.408Z,101509.73
2022-10-05T04:41:54.613Z,101504.31
2022-10-05T04:45:02.620Z,101496.72
2022-10-05T04:47:42.317Z,101499.17
2022-10-05T04:50:32.438Z,101504.61
2022-10-05T04:53:12.793Z,101499.45
2022-10-05T04:55:52.433Z,101498.11
2022-10-05T04:58:32.346Z,101494.58
2022-10-05T05:01:08.836Z,101490.80
2022-10-05T05:03:53.954Z,101488.91
2022-10-05T05:06:32.521Z,101486.48
2022-10-05T05:09:23.533Z,101476.47
2022-10-05T05:12:16.489Z,101480.23
2022-10-05T05:15:04.900Z,101466.69
2022-10-05T05:17:55.384Z,101472.67
2022-10-05T05:20:36.928Z,101466.98
2022-10-05T05:23:39.819Z,101469.95
2022-10-05T05:26:15.889Z,101458.28
2022-10-05T05:28:57.481Z,101457.77
2022-10-05T05:31:35.834Z,101461.27
2022-10-05T05:34:23.107Z,101455.31
2022-10-05T05:36:58.127Z,101461.02
2022-10-05T05:39:29.601Z,101454.50
2022-10-05T05:42:02.525Z,101458.02
2022-10-05T05:44:38.965Z,101454.79
2022-10-05T05:47:20.767Z,101458.56
2022-10-05T05:50:08.196Z,101455.33
2022-10-05T05:52:48.215Z,101447.20
2022-10-05T05:55:30.717Z,101448.82
2022-10-05T05:58:19.559Z,101446.94
2022-10-05T06:01:04.121Z,101450.44
2022-10-05T06:03:42.776Z,101450.47
2022-10-05T06:06:16.197Z,101458.06
2022-10-05T06:08:56.785Z,101459.95
2022-10-05T06:11:38.437Z,101456.17
2022-10-05T06:14:14.134Z,101447.22
2022-10-05T06:16:47.295Z,101461.28
2022-10-05T06:19:22.966Z,101460.21
2022-10-05T06:22:11.878Z,101459.68
2022-10-05T06:24:52.068Z,101457.76
2022-10-05T06:27:24.528Z,101459.66
2022-10-05T06:30:09.161Z,101458.02
2022-10-05T06:32:55.569Z,101462.08
2022-10-05T06:36:02.214Z,101460.19
2022-10-05T06:38:37.698Z,101462.91
2022-10-05T06:41:30.118Z,101463.71
2022-10-05T06:44:26.650Z,101461.56
2022-10-05T06:47:12.394Z,101467.80
2022-10-05T06:49:57.264Z,101472.08
2022-10-05T06:52:45.681Z,101462.06
2022-10-05T06:55:33.186Z,101473.98
2022-10-05T06:58:06.165Z,101468.30
2022-10-05T07:00:40.908Z,101468.02
2022-10-05T07:03:28.458Z,101468.84
2022-10-05T07:06:16.183Z,101466.42
2022-10-05T07:09:14.344Z,101465.89
2022-10-05T07:11:58.404Z,101468.29
2022-10-05T07:14:48.497Z,101472.65
2022-10-05T07:17:39.499Z,101472.64
2022-10-05T07:20:26.875Z,101470.73
2022-10-05T07:23:02.899Z,101470.22
2022-10-05T07:25:44.885Z,101469.13
2022-10-05T07:28:20.436Z,101473.19
2022-10-05T07:30:58.758Z,101470.76
2022-10-05T07:33:46.102Z,101479.44
2022-10-05T07:36:36.503Z,101475.91
2022-10-05T07:39:21.395Z,101478.08
2022-10-05T07:42:00.177Z,101470.73
2022-10-05T07:44:36.854Z,101472.36
2022-10-05T07:47:18.186Z,101473.70
2022-10-05T07:50:01.725Z,101474.26
2022-10-05T07:52:43.497Z,101473.45
2022-10-05T07:55:20.297Z,101470.99
2022-10-05T07:58:28.961Z,101456.91
2022-10-05T08:01:02.828Z,101458.78
2022-10-05T08:04:09.248Z,101460.13
2022-10-05T08:06:56.182Z,101464.19
2022-10-05T08:09:36.120Z,101470.94
2022-10-05T08:12:26.120Z,101463.84
2022-10-05T08:15:15.825Z,101461.97
2022-10-05T08:17:56.963Z,101467.36
2022-10-05T08:20:49.247Z,101467.60
2022-10-05T08:23:38.688Z,101470.34
2022-10-05T08:26:21.789Z,101465.99
2022-10-05T08:29:13.784Z,101463.25
2022-10-05T08:31:45.617Z,101458.09
2022-10-05T08:34:40.370Z,101457.29
2022-10-05T08:37:12.962Z,101447.23
2022-10-05T08:39:42.610Z,101454.57
2022-10-05T08:42:23.890Z,101445.89
2022-10-05T08:44:59.204Z,101441.80
2022-10-05T08:47:40.320Z,101439.88
2022-10-05T08:50:24.780Z,101436.59
2022-10-05T08:53:13.445Z,101434.45
2022-10-05T08:55:54.703Z,101435.78
2022-10-05T08:58:38.610Z,101429.55
2022-10-05T09:01:27.519Z,101433.05
2022-10-05T09:04:19.614Z,101433.27
2022-10-05T09:07:10.806Z,101425.00
2022-10-05T09:10:02.073Z,101422.09
2022-10-05T09:13:08.206Z,101415.83
2022-10-05T09:15:57.062Z,101425.19
2022-10-05T09:18:44.633Z,101420.31
2022-10-05T09:21:42.402Z,101419.97
2022-10-05T09:24:17.432Z,101410.95
2022-10-05T09:27:10.955Z,101406.11
2022-10-05T09:29:59.572Z,101402.25
2022-10-05T09:33:04.089Z,101405.38
2022-10-05T09:35:54.648Z,101399.91
2022-10-05T09:38:51.661Z,101402.58
2022-10-05T09:41:32.956Z,101404.61
2022-10-05T09:44:05.541Z,101400.45
2022-10-05T09:46:38.395Z,101400.50
2022-10-05T09:49:39.623Z,101395.40
2022-10-05T09:52:33.143Z,101392.05
2022-10-05T09:55:25.648Z,101388.55
2022-10-05T09:58:22.498Z,101397.73
2022-10-05T10:01:09.303Z,101387.70
2022-10-05T10:04:05.631Z,101384.02
2022-10-05T10:06:44.500Z,101380.52
2022-10-05T10:09:22.578Z,101379.55
2022-10-05T10:12:10.034Z,101383.94
2022-10-05T10:14:55.775Z,101375.96
2022-10-05T10:17:47.960Z,101370.05
2022-10-05T10:20:25.992Z,101366.48
2022-10-05T10:22:58.440Z,101374.24
2022-10-05T10:25:39.991Z,101373.22
2022-10-05T10:28:43.070Z,101366.52
2022-10-05T10:31:25.931Z,101377.63
2022-10-05T10:34:22.888Z,101372.83
2022-10-05T10:37:20.822Z,101372.52
2022-10-05T10:40:04.915Z,101369.67
2022-10-05T10:42:40.243Z,101368.87
2022-10-05T10:45:15.400Z,101370.84
2022-10-05T10:47:57.016Z,101369.75
2022-10-05T10:50:41.449Z,101368.69
2022-10-05T10:53:36.604Z,101361.64
2022-10-05T10:56:09.256Z,101357.87
2022-10-05T10:58:53.471Z,101359.88
2022-10-05T11:01:26.132Z,101351.94
2022-10-05T11:04:01.889Z,101350.52
2022-10-05T11:06:57.191Z,101356.33
2022-10-05T11:10:01.171Z,101352.63
2022-10-05T11:13:01.004Z,101352.13
2022-10-05T11:16:00.868Z,101345.52
2022-10-05T11:18:49.738Z,101336.38
2022-10-05T11:21:34.454Z,101344.12
2022-10-05T11:24:15.965Z,101336.44
2022-10-05T11:26:54.233Z,101336.09
2022-10-05T11:29:49.313Z,101336.86
2022-10-05T11:32:39.633Z,101332.21
2022-10-05T11:35:30.990Z,101333.24
2022-10-05T11:38:24.234Z,101336.86
2022-10-05T11:41:28.040Z,101321.66
2022-10-05T11:44:27.399Z,101317.39
2022-10-05T11:47:02.875Z,101316.62
2022-10-05T11:49:40.977Z,101309.98
2022-10-05T11:52:19.583Z,101306.34
2022-10-05T11:55:16.422Z,101313.44
2022-10-05T11:58:04.357Z,101308.96
2022-10-05T12:00:41.316Z,101306.80
2022-10-05T12:03:40.924Z,101318.88
2022-10-05T12:06:28.933Z,101304.20
2022-10-05T12:09:27.576Z,101303.05
2022-10-05T12:12:16.607Z,101304.10
2022-10-05T12:14:57.837Z,101294.30
2022-10-05T12:17:42.190Z,101295.27
2022-10-05T12:20:17.791Z,101286.97
2022-10-05T12:22:56.756Z,101291.84
2022-10-05T12:25:34.889Z,101287.38
2022-10-05T12:28:16.463Z,101296.28
2022-10-05T12:31:06.377Z,101283.81
2022-10-05T12:33:41.950Z,101285.45
2022-10-05T12:36:35.998Z,101289.09
2022-10-05T12:39:05.246Z,101285.97
2022-10-05T12:41:46.481Z,101289.28
2022-10-05T12:44:43.263Z,101284.16
2022-10-05T12:47:18.342Z,101273.91
2022-10-05T12:50:06.145Z,101281.67
2022-10-05T12:52:50.619Z,101279.02
2022-10-05T12:55:31.613Z,101283.42
2022-10-05T12:58:07.547Z,101282.83
2022-10-05T13:00:40.389Z,101281.05
2022-10-05T13:03:19.097Z,101286.02
2022-10-05T13:06:02.348Z,101283.64
2022-10-05T13:08:40.507Z,101285.20
2022-10-05T13:11:28.209Z,101290.37
2022-10-05T13:14:09.686Z,101294.30
2022-10-05T13:16:55.265Z,101293.83
2022-10-05T13:19:48.934Z,101298.67
2022-10-05T13:22:24.439Z,101310.00
2022-10-05T13:24:59.809Z,101305.83
2022-10-05T13:27:31.275Z,101307.16
2022-10-05T13:30:08.445Z,101290.09
2022-10-05T13:32:57.698Z,101291.74
2022-10-05T13:35:41.893Z,101298.57
2022-10-05T13:38:23.613Z,101285.85
2022-10-05T13:40:57.826Z,101291.59
2022-10-05T13:43:51.326Z,101291.19
2022-10-05T13:46:36.823Z,101285.70
2022-10-05T13:49:25.911Z,101298.73
2022-10-05T13:52:04.033Z,101294.31
2022-10-05T13:54:39.135Z,101305.45
2022-10-05T13:57:22.180Z,101300.01
2022-10-05T13:59:54.713Z,101300.72
2022-10-05T14:02:30.748Z,101306.93
2022-10-05T14:05:01.558Z,101297.22
2022-10-05T14:07:54.749Z,101305.05
2022-10-05T14:10:42.135Z,101298.02
2022-10-05T14:13:20.419Z,101293.16
2022-10-05T14:16:05.389Z,101299.72
2022-10-05T14:18:37.754Z,101304.34
2022-10-05T14:21:16.680Z,101311.39
2022-10-05T14:23:46.598Z,101305.47
2022-10-05T14:26:21.803Z,101313.47
2022-10-05T14:29:18.071Z,101323.66
2022-10-05T14:32:01.645Z,101323.34
2022-10-05T14:34:34.884Z,101327.66
2022-10-05T14:37:21.522Z,101324.43
2022-10-05T14:39:53.940Z,101335.92
2022-10-05T14:42:28.400Z,101321.53
2022-10-05T14:45:00.908Z,101320.86
2022-10-05T14:47:31.245Z,101338.22
2022-10-05T14:50:13.734Z,101324.62
2022-10-05T14:52:51.685Z,101336.40
2022-10-05T14:55:27.728Z,101325.97
2022-10-05T14:58:11.815Z,101320.30
2022-10-05T15:00:50.296Z,101331.74
2022-10-05T15:03:26.597Z,101320.73
2022-10-05T15:05:58.986Z,101314.87
2022-10-05T15:08:49.549Z,101316.93
2022-10-05T15:11:24.451Z,101310.99
2022-10-05T15:13:54.150Z,101312.91
2022-10-05T15:16:29.552Z,101313.93
2022-10-05T15:19:23.287Z,101318.63
2022-10-05T15:22:00.170Z,101314.30
2022-10-05T15:24:45.520Z,101327.30
2022-10-05T15:27:17.894Z,101328.91
2022-10-05T15:30:05.473Z,101327.09
2022-10-05T15:32:39.508Z,101323.33
2022-10-05T15:35:20.650Z,101329.70
2022-10-05T15:37:55.068Z,101325.68
2022-10-05T15:40:28.064Z,101333.67
2022-10-05T15:43:01.649Z,101331.19
2022-10-05T15:45:34.195Z,101334.45
2022-10-05T15:48:10.641Z,101330.06
2022-10-05T15:50:50.712Z,101336.05
2022-10-05T15:53:26.195Z,101341.89
2022-10-05T15:56:04.015Z,101344.04
2022-10-05T15:58:45.097Z,101343.23
2022-10-05T16:01:23.276Z,101338.72
2022-10-05T16:04:04.694Z,101342.19
2022-10-05T16:07:18.589Z,101341.94
2022-10-05T16:10:06.249Z,101344.16
2022-10-05T16:12:50.720Z,101343.59
2022-10-05T16:15:29.150Z,101345.34
2022-10-05T16:18:18.749Z,101348.56
2022-10-05T16:21:03.241Z,101350.81
2022-10-05T16:23:55.419Z,101351.37
2022-10-05T16:26:46.137Z,101356.20
2022-10-05T16:29:21.512Z,101360.79
2022-10-05T16:31:59.982Z,101354.59
2022-10-05T16:34:37.672Z,101357.88
2022-10-05T16:37:32.098Z,101361.45
2022-10-05T16:40:04.579Z,101364.16
2022-10-05T16:42:35.165Z,101367.67
2022-10-05T16:45:23.718Z,101361.94
2022-10-05T16:48:08.279Z,101366.84
2022-10-05T16:50:44.028Z,101365.52
2022-10-05T16:53:28.446Z,101369.61
2022-10-05T16:56:01.170Z,101366.94
2022-10-05T16:58:42.478Z,101359.89
2022-10-05T17:01:26.687Z,101365.84
2022-10-05T17:04:02.171Z,101358.49
2022-10-05T17:06:50.878Z,101370.41
2022-10-05T17:09:38.530Z,101366.88
2022-10-05T17:12:32.038Z,101377.75
2022-10-05T17:15:32.614Z,101374.53
2022-10-05T17:18:27.543Z,101376.16
2022-10-05T17:21:00.084Z,101378.56
2022-10-05T17:23:32.546Z,101376.16
2022-10-05T17:26:33.926Z,101372.88
2022-10-05T17:29:18.229Z,101380.98
2022-10-05T17:32:09.279Z,101384.25
2022-10-05T17:35:02.208Z,101382.02
2022-10-05T17:37:34.115Z,101391.53
2022-10-05T17:40:27.722Z,101395.05
2022-10-05T17:43:02.229Z,101390.16
2022-10-05T17:45:34.648Z,101403.96
2022-10-05T17:48:11.771Z,101400.98
2022-10-05T17:51:06.553Z,101405.17
2022-10-05T17:53:56.027Z,101410.50
2022-10-05T17:56:25.504Z,101400.42
2022-10-05T17:59:00.826Z,101402.09
2022-10-05T18:01:34.001Z,101408.04
2022-10-05T18:04:21.650Z,101411.19
2022-10-05T18:07:02.566Z,101418.29
2022-10-05T18:09:37.710Z,101416.13
2022-10-05T18:12:21.256Z,101415.77
2022-10-05T18:15:05.654Z,101420.16
2022-10-05T18:18:01.090Z,101418.48
2022-10-05T18:20:34.914Z,101424.42
2022-10-05T18:23:10.486Z,101437.20
2022-10-05T18:26:11.071Z,101435.44
2022-10-05T18:28:49.908Z,101438.39
2022-10-05T18:31:39.172Z,101445.33
2022-10-05T18:34:17.716Z,101445.31
2022-10-05T18:37:08.238Z,101446.75
2022-10-05T18:39:43.892Z,101460.58
2022-10-05T18:42:28.285Z,101480.69
2022-10-05T18:45:06.550Z,101478.56
2022-10-05T18:47:47.666Z,101487.17
2022-10-05T18:50:21.532Z,101490.69
2022-10-05T18:53:11.882Z,101496.06
2022-10-05T18:55:47.234Z,101499.80
2022-10-05T18:58:29.397Z,101509.94
2022-10-05T19:01:34.032Z,101505.55
2022-10-05T19:04:22.955Z,101513.55
2022-10-05T19:07:07.519Z,101513.94
2022-10-05T19:10:15.000Z,101517.31
2022-10-05T19:12:56.653Z,101519.53
2022-10-05T19:15:59.634Z,101534.28
2022-10-05T19:18:54.346Z,101544.39
2022-10-05T19:21:26.969Z,101557.78
2022-10-05T19:24:01.194Z,101557.27
2022-10-05T19:27:00.730Z,101562.45
2022-10-05T19:29:54.450Z,101556.26
2022-10-05T19:32:41.872Z,101567.76
2022-10-05T19:35:17.141Z,101569.93
2022-10-05T19:38:14.446Z,101572.72
2022-10-05T19:40:56.572Z,101588.48
2022-10-05T19:43:53.545Z,101588.00
2022-10-05T19:46:37.678Z,101583.12
2022-10-05T19:49:10.920Z,101602.16
2022-10-05T19:51:52.544Z,101597.02
2022-10-05T19:54:26.814Z,101610.38
2022-10-05T19:56:57.213Z,101625.83
2022-10-05T19:59:34.789Z,101620.14
2022-10-05T20:02:04.294Z,101628.80
2022-10-05T20:04:41.530Z,101630.42
2022-10-05T20:07:16.911Z,101633.69
2022-10-05T20:09:56.782Z,101636.11
2022-10-05T20:12:54.489Z,101639.90
2022-10-05T20:15:46.525Z,101646.40
2022-10-05T20:19:02.775Z,101655.97
2022-10-05T20:21:41.114Z,101657.78
2022-10-05T20:24:13.304Z,101662.70
2022-10-05T20:27:05.253Z,101665.70
2022-10-05T20:29:36.773Z,101663.22
2022-10-05T20:32:12.415Z,101657.52
2022-10-05T20:34:43.010Z,101690.70
2022-10-05T20:37:14.296Z,101690.96
2022-10-05T20:39:44.489Z,101694.80
2022-10-05T20:42:14.163Z,101710.55
2022-10-05T20:44:43.883Z,101720.34
2022-10-05T20:47:13.966Z,101723.10
2022-10-05T20:49:44.588Z,101734.22
2022-10-05T20:52:15.872Z,101754.10
2022-10-05T20:57:15.930Z,101758.83
2022-10-05T20:59:47.274Z,101766.41
2022-10-05T21:02:16.942Z,101770.22
2022-10-05T21:04:50.503Z,101759.91
2022-10-05T21:07:21.724Z,101766.97
2022-10-05T21:09:51.670Z,101768.06
2022-10-05T21:12:20.935Z,101778.63
2022-10-05T21:14:51.819Z,101786.75
2022-10-05T21:17:21.205Z,101784.34
2022-10-05T21:19:50.882Z,101793.81
2022-10-05T21:22:20.137Z,101803.33
2022-10-05T21:24:49.746Z,101804.67
2022-10-05T21:27:19.265Z,101813.09
2022-10-05T21:29:48.996Z,101821.48
2022-10-05T21:32:18.486Z,101831.75
2022-10-05T21:34:47.741Z,101830.39
2022-10-05T21:37:18.168Z,101833.91
2022-10-05T21:39:47.691Z,101841.25
2022-10-05T21:42:16.925Z,101844.76
2022-10-05T21:44:46.400Z,101856.96
2022-10-05T21:47:15.734Z,101858.05
2022-10-05T21:49:45.229Z,101866.73
2022-10-05T21:52:14.624Z,101882.43
2022-10-05T21:54:44.038Z,101884.61
2022-10-05T21:57:14.707Z,101889.19
2022-10-05T21:59:44.452Z,101888.92
2022-10-05T22:02:13.716Z,101897.02
2022-10-05T22:04:43.062Z,101901.58
2022-10-05T22:07:19.412Z,101908.03
2022-10-05T22:09:52.259Z,101911.83
2022-10-05T22:12:21.797Z,101920.22
2022-10-05T22:14:51.040Z,101928.89
2022-10-05T22:17:23.613Z,101934.91
2022-10-05T22:19:52.275Z,101937.32
2022-10-05T22:22:22.341Z,101940.22
2022-10-05T22:24:53.074Z,101950.00
2022-10-05T22:27:27.773Z,101951.86
2022-10-05T22:29:58.334Z,101954.27
2022-10-05T22:32:27.545Z,101954.74
2022-10-05T22:34:57.240Z,101956.40
2022-10-05T22:37:26.787Z,101963.14
2022-10-05T22:39:56.001Z,101962.52
2022-10-05T22:42:25.596Z,101978.69
2022-10-05T22:44:54.830Z,101989.78
2022-10-05T22:47:24.174Z,101996.47
2022-10-05T22:49:53.401Z,101995.08
2022-10-05T22:52:22.644Z,101998.77
2022-10-05T22:54:51.949Z,102014.42
2022-10-05T22:57:21.295Z,102006.78
2022-10-05T22:59:50.587Z,102012.37
2022-10-05T23:02:20.161Z,102017.23
2022-10-05T23:04:49.478Z,102021.22
2022-10-05T23:07:18.771Z,102029.29
2022-10-05T23:09:48.035Z,102034.96
2022-10-05T23:12:19.267Z,102030.16
2022-10-05T23:14:48.542Z,102038.53
2022-10-05T23:17:22.214Z,102037.93
2022-10-05T23:19:51.711Z,102045.25
2022-10-05T23:22:21.885Z,102046.59
2022-10-05T23:24:51.188Z,102054.64
2022-10-05T23:27:20.600Z,102051.63
2022-10-05T23:29:49.830Z,102061.40
2022-10-05T23:32:19.322Z,102068.99
2022-10-05T23:34:48.645Z,102068.45
2022-10-05T23:37:19.692Z,102075.20
2022-10-05T23:39:49.030Z,102086.78
2022-10-05T23:42:18.639Z,102086.63
2022-10-05T23:44:47.898Z,102090.91
2022-10-05T23:47:17.228Z,102091.28
2022-10-05T23:49:46.442Z,102097.13
2022-10-05T23:52:15.726Z,102100.84
2022-10-05T23:54:44.941Z,102110.03
2022-10-05T23:57:19.061Z,102117.27
2022-10-05T23:59:50.339Z,102118.81
